Flight Track Log - Related Links

Times and Time Zones

All times are in EDT time to prevent confusion due to time zone crossing. See the SKW5550 flight status page for this flight to view local times or setup timezone preferences in your user account.

Time Position Orientation Groundspeed Altitude Reporting Facility
EDT Latitude Longitude Course Direction KTS MPH feet Rate Location/Type
Thu 10:50:00 AM 44.0289 -108.5255 157° South  Level Estimated
Thu 10:50:00 AM 44.5061 -109.0539 144° Southeast 152 175 6,200  Level Salt Lake Center
Thu 10:51:00 AM 43.9278 -108.4860 164° South  Level FlightAware Approximate
Thu 10:51:02 AM 44.4650 -109.0683 194° South 228 262 7,900  Level Salt Lake Center
Thu 10:52:00 AM 43.8430 -108.4000 156° South  Level Estimated
Thu 10:52:04 AM 44.5125 -109.0078 42° Northeast 240 276 10,600  Level Salt Lake Center
Thu 10:53:00 AM 43.7581 -108.3142 142° Southeast  Level Estimated
Thu 10:53:06 AM 44.5244 -108.9103 80° East 272 313 12,000  Level Salt Lake Center
Thu 10:54:00 AM 43.6587 -108.2672 161° South  Level FlightAware Approximate
Thu 10:54:08 AM 44.4528 -108.8536 151° Southeast 289 333 14,400  Level Salt Lake Center
Thu 10:55:00 AM 43.5742 -108.1811 144° Southeast  Level Estimated
Thu 10:55:10 AM 44.3789 -108.7875 147° Southeast 309 356 15,600  Level Salt Lake Center
Thu 10:56:12 AM 44.2989 -108.7128 146° Southeast 332 382 17,000 1,500 Climbing Salt Lake Center
Thu 10:57:14 AM 44.2136 -108.6356 147° Southeast 358 412 18,700 1,548 Climbing Salt Lake Center
Thu 10:58:16 AM 44.1106 -108.5417 147° Southeast 367 422 20,200 1,306 Climbing Salt Lake Center
Thu 10:59:18 AM 44.0228 -108.4611 147° Southeast 376 433 21,400 1,344 Climbing Salt Lake Center
Thu 11:00:21 AM 43.9350 -108.3797 146° Southeast 380 437 23,000 1,200 Climbing Salt Lake Center
Thu 11:01:23 AM 43.8464 -108.3014 147° Southeast 380 437 23,900 968 Climbing Salt Lake Center
Thu 11:02:25 AM 43.7581 -108.2208 147° Southeast 383 441 25,000 1,016 Climbing Salt Lake Center
Thu 11:03:27 AM 43.6494 -108.1253 148° Southeast 386 444 26,000 823 Climbing Salt Lake Center
Thu 11:04:29 AM 43.5600 -108.0453 147° Southeast 386 444 26,700 919 Climbing Salt Lake Center
Thu 11:05:31 AM 43.4697 -107.9628 146° Southeast 389 448 27,900 1,016 Climbing Salt Lake Center
Thu 11:06:33 AM 43.3817 -107.8858 148° Southeast 380 437 28,800 677 Climbing Salt Lake Center
Thu 11:07:35 AM 43.2917 -107.8047 147° Southeast 385 443 29,300 774 Climbing Salt Lake Center
Thu 11:08:37 AM 43.2017 -107.7256 147° Southeast 385 443 30,400 823 Climbing Salt Lake Center
Thu 11:09:39 AM 43.0950 -107.6314 147° Southeast 383 441 31,000 290 Climbing Salt Lake Center
Thu 11:10:41 AM 43.0025 -107.5531 148° Southeast 388 447 31,000  Level Salt Lake Center
Thu 11:11:43 AM 42.9117 -107.4725 147° Southeast 403 464 31,000  Level Salt Lake Center
Thu 11:12:45 AM 42.8011 -107.3772 148° Southeast 416 479 31,000  Level Salt Lake Center
Thu 11:13:23 AM 42.7375 -107.3222 148° Southeast 423 487 31,000  Level Denver Center
Thu 11:14:25 AM 42.6403 -107.2389 148° Southeast 428 493 31,000  Level Denver Center
Thu 11:15:27 AM 42.5272 -107.1406 147° Southeast 430 495 31,000  Level Denver Center
Thu 11:16:29 AM 42.4286 -107.0569 148° Southeast 434 499 31,000  Level Denver Center
Thu 11:17:31 AM 42.3181 -106.9561 146° Southeast 429 494 31,000  Level Denver Center
Thu 11:18:33 AM 42.2228 -106.8700 146° Southeast 428 493 31,000  Level Denver Center
Thu 11:19:35 AM 42.1117 -106.7694 146° Southeast 430 495 31,000  Level Denver Center
Thu 11:20:37 AM 42.0183 -106.6836 146° Southeast 426 490 31,000  Level Denver Center
Thu 11:21:39 AM 41.9094 -106.5867 146° Southeast 421 484 31,000  Level Denver Center
Thu 11:22:42 AM 41.8194 -106.5053 146° Southeast 420 483 31,000  Level Denver Center
Thu 11:23:44 AM 41.7094 -106.4083 147° Southeast 422 486 31,000  Level Denver Center
Thu 11:24:46 AM 41.6150 -106.3242 146° Southeast 425 489 31,000  Level Denver Center
Thu 11:25:48 AM 41.5075 -106.2289 146° Southeast 419 482 31,000  Level Denver Center
Thu 11:26:50 AM 41.4156 -106.1475 146° Southeast 416 479 31,000  Level Denver Center
Thu 11:27:52 AM 41.3069 -106.0525 147° Southeast 418 481 31,000  Level Denver Center
Thu 11:28:54 AM 41.2136 -105.9711 147° Southeast 419 482 31,000  Level Denver Center
Thu 11:29:56 AM 41.1053 -105.8758 146° Southeast 420 483 31,000 -145 Level Denver Center
Thu 11:30:58 AM 41.0111 -105.7931 146° Southeast 415 478 30,700 -1,403 Descending Denver Center
Thu 11:32:00 AM 40.9164 -105.7122 147° Southeast 408 470 28,100 -2,468 Descending Denver Center
Thu 11:33:02 AM 40.8281 -105.6342 146° Southeast 392 451 25,600 -2,274 Descending Denver Center
Thu 11:34:04 AM 40.7431 -105.5642 148° Southeast 370 426 23,400 -2,129 Descending Denver Center
Thu 11:35:06 AM 40.6606 -105.4914 146° Southeast 360 414 21,200 -2,129 Descending Denver Center
Thu 11:36:08 AM 40.5747 -105.3875 137° Southeast 359 413 19,000 -1,839 Descending Denver Center
Thu 11:37:10 AM 40.5217 -105.2883 125° Southeast 340 391 17,400 -1,536 Descending Denver Center
Thu 11:38:13 AM 40.4736 -105.1864 122° Southeast 317 365 15,800 -1,488 Descending Denver Center
Thu 11:39:15 AM 40.4219 -105.0933 126° Southeast 314 361 14,300 -1,355 Descending Denver Center
Thu 11:40:17 AM 40.3694 -104.9994 126° Southeast 299 344 13,000 -919 Descending Denver Center
Thu 11:41:19 AM 40.3203 -104.9164 128° Southeast 291 335 12,400 -774 Descending Denver Center
Thu 11:42:21 AM 40.2650 -104.8464 136° Southeast 275 316 11,400 -1,016 Descending Denver Center
Thu 11:43:23 AM 40.2019 -104.8008 151° Southeast 242 278 10,300 -968 Descending Denver Center
Thu 11:44:25 AM 40.1492 -104.7619 151° Southeast 222 255 9,400 -871 Descending Denver Center
Thu 11:45:27 AM 40.0933 -104.7214 151° Southeast 215 247 8,500 -677 Descending Denver Center
Thu 11:46:29 AM 40.0400 -104.6956 160° South 209 241 8,000 -629 Descending Denver Center
Thu 11:47:31 AM 39.9814 -104.6956 180° South 196 226 7,200 -871 Descending Denver Center
Thu 11:48:33 AM 39.9381 -104.6964 181° South 161 185 6,200 -871 Descending Denver Center
Thu 11:49:35 AM 39.8961 -104.6958 179° South 147 169 5,400 -774 Descending Denver Center

Login

Don't have an account? Register now (free) for customized features, flight alerts, and more!